sensor_id;sensor_type;location;lat;lon;timestamp;P1;durP1;ratioP1;P2;durP2;ratioP2
16862;SDS011;52193;48.216;-1.698;2023-03-23T00:01:18;125.28;;;117.18;;
16862;SDS011;52193;48.216;-1.698;2023-03-23T00:03:47;125.00;;;117.33;;
16862;SDS011;52193;48.216;-1.698;2023-03-23T00:06:16;124.82;;;116.88;;
16862;SDS011;52193;48.216;-1.698;2023-03-23T00:08:44;125.10;;;117.40;;
16862;SDS011;52193;48.216;-1.698;2023-03-23T00:11:12;127.70;;;119.88;;
16862;SDS011;52193;48.216;-1.698;2023-03-23T00:13:40;124.97;;;117.47;;
16862;SDS011;52193;48.216;-1.698;2023-03-23T00:16:09;125.15;;;117.57;;
16862;SDS011;52193;48.216;-1.698;2023-03-23T00:18:43;127.97;;;119.95;;
16862;SDS011;52193;48.216;-1.698;2023-03-23T00:21:10;114.75;;;107.30;;
16862;SDS011;52193;48.216;-1.698;2023-03-23T00:23:38;123.25;;;115.93;;
16862;SDS011;52193;48.216;-1.698;2023-03-23T00:26:10;119.90;;;112.63;;
16862;SDS011;52193;48.216;-1.698;2023-03-23T00:28:37;119.68;;;112.18;;
16862;SDS011;52193;48.216;-1.698;2023-03-23T00:31:05;119.32;;;112.05;;
16862;SDS011;52193;48.216;-1.698;2023-03-23T00:33:34;119.70;;;112.47;;
16862;SDS011;52193;48.216;-1.698;2023-03-23T00:36:06;116.70;;;109.40;;
16862;SDS011;52193;48.216;-1.698;2023-03-23T00:38:34;116.90;;;109.55;;
16862;SDS011;52193;48.216;-1.698;2023-03-23T00:41:03;114.30;;;106.93;;
16862;SDS011;52193;48.216;-1.698;2023-03-23T00:43:31;118.15;;;110.88;;
16862;SDS011;52193;48.216;-1.698;2023-03-23T00:46:01;116.85;;;109.82;;
16862;SDS011;52193;48.216;-1.698;2023-03-23T00:48:33;118.20;;;110.63;;
16862;SDS011;52193;48.216;-1.698;2023-03-23T00:51:01;113.85;;;106.50;;
16862;SDS011;52193;48.216;-1.698;2023-03-23T00:53:31;112.13;;;105.25;;
16862;SDS011;52193;48.216;-1.698;2023-03-23T00:55:58;116.32;;;109.13;;
16862;SDS011;52193;48.216;-1.698;2023-03-23T00:58:26;113.53;;;106.32;;
16862;SDS011;52193;48.216;-1.698;2023-03-23T01:00:53;110.43;;;103.80;;
16862;SDS011;52193;48.216;-1.698;2023-03-23T01:03:21;115.65;;;108.95;;
16862;SDS011;52193;48.216;-1.698;2023-03-23T01:05:51;113.37;;;106.50;;
16862;SDS011;52193;48.216;-1.698;2023-03-23T01:08:18;107.80;;;101.28;;
16862;SDS011;52193;48.216;-1.698;2023-03-23T01:10:46;103.15;;;96.60;;
16862;SDS011;52193;48.216;-1.698;2023-03-23T01:13:13;105.70;;;99.20;;
16862;SDS011;52193;48.216;-1.698;2023-03-23T01:15:42;108.65;;;102.25;;
16862;SDS011;52193;48.216;-1.698;2023-03-23T01:18:09;101.85;;;95.60;;
16862;SDS011;52193;48.216;-1.698;2023-03-23T01:20:36;106.35;;;100.15;;
16862;SDS011;52193;48.216;-1.698;2023-03-23T01:23:03;107.55;;;101.13;;
16862;SDS011;52193;48.216;-1.698;2023-03-23T01:25:31;108.88;;;102.53;;
16862;SDS011;52193;48.216;-1.698;2023-03-23T01:28:01;99.13;;;92.88;;
16862;SDS011;52193;48.216;-1.698;2023-03-23T01:30:28;97.60;;;91.57;;
16862;SDS011;52193;48.216;-1.698;2023-03-23T01:32:56;105.53;;;99.35;;
16862;SDS011;52193;48.216;-1.698;2023-03-23T01:35:23;102.43;;;96.22;;
16862;SDS011;52193;48.216;-1.698;2023-03-23T01:37:50;98.00;;;92.35;;
16862;SDS011;52193;48.216;-1.698;2023-03-23T01:40:17;90.50;;;85.10;;
16862;SDS011;52193;48.216;-1.698;2023-03-23T01:42:44;92.07;;;86.47;;
16862;SDS011;52193;48.216;-1.698;2023-03-23T01:45:22;104.97;;;98.82;;
16862;SDS011;52193;48.216;-1.698;2023-03-23T01:47:52;100.18;;;94.40;;
16862;SDS011;52193;48.216;-1.698;2023-03-23T01:50:25;98.18;;;92.57;;
16862;SDS011;52193;48.216;-1.698;2023-03-23T01:52:54;94.00;;;88.47;;
16862;SDS011;52193;48.216;-1.698;2023-03-23T01:55:24;104.57;;;98.53;;
16862;SDS011;52193;48.216;-1.698;2023-03-23T01:57:54;103.35;;;97.28;;
16862;SDS011;52193;48.216;-1.698;2023-03-23T02:00:22;107.10;;;101.13;;
16862;SDS011;52193;48.216;-1.698;2023-03-23T02:02:50;108.30;;;102.22;;
16862;SDS011;52193;48.216;-1.698;2023-03-23T02:05:22;103.05;;;96.95;;
16862;SDS011;52193;48.216;-1.698;2023-03-23T02:07:54;107.93;;;101.55;;
16862;SDS011;52193;48.216;-1.698;2023-03-23T02:10:27;99.27;;;93.33;;
16862;SDS011;52193;48.216;-1.698;2023-03-23T02:12:55;100.03;;;93.83;;
16862;SDS011;52193;48.216;-1.698;2023-03-23T02:15:22;107.65;;;101.22;;
16862;SDS011;52193;48.216;-1.698;2023-03-23T02:17:53;106.90;;;100.50;;
16862;SDS011;52193;48.216;-1.698;2023-03-23T02:20:33;109.18;;;102.97;;
16862;SDS011;52193;48.216;-1.698;2023-03-23T02:26:37;120.87;;;113.43;;
16862;SDS011;52193;48.216;-1.698;2023-03-23T02:29:17;126.75;;;119.53;;
16862;SDS011;52193;48.216;-1.698;2023-03-23T02:32:10;135.10;;;127.50;;
16862;SDS011;52193;48.216;-1.698;2023-03-23T02:34:43;131.73;;;123.93;;
16862;SDS011;52193;48.216;-1.698;2023-03-23T02:37:16;135.73;;;127.85;;
16862;SDS011;52193;48.216;-1.698;2023-03-23T02:39:51;133.30;;;125.43;;
16862;SDS011;52193;48.216;-1.698;2023-03-23T02:42:21;138.03;;;130.23;;
16862;SDS011;52193;48.216;-1.698;2023-03-23T02:44:52;138.32;;;130.45;;
16862;SDS011;52193;48.216;-1.698;2023-03-23T02:47:21;141.35;;;133.48;;
16862;SDS011;52193;48.216;-1.698;2023-03-23T02:49:52;140.30;;;132.07;;
16862;SDS011;52193;48.216;-1.698;2023-03-23T02:52:22;140.10;;;132.20;;
16862;SDS011;52193;48.216;-1.698;2023-03-23T02:54:52;140.05;;;131.88;;
16862;SDS011;52193;48.216;-1.698;2023-03-23T02:57:21;145.37;;;136.93;;
16862;SDS011;52193;48.216;-1.698;2023-03-23T02:59:49;144.35;;;136.32;;
16862;SDS011;52193;48.216;-1.698;2023-03-23T03:02:17;138.52;;;130.13;;
16862;SDS011;52193;48.216;-1.698;2023-03-23T03:04:46;138.15;;;130.15;;
16862;SDS011;52193;48.216;-1.698;2023-03-23T03:10:16;131.68;;;124.18;;
16862;SDS011;52193;48.216;-1.698;2023-03-23T03:12:51;124.20;;;116.93;;
16862;SDS011;52193;48.216;-1.698;2023-03-23T03:15:24;117.07;;;109.95;;
16862;SDS011;52193;48.216;-1.698;2023-03-23T03:17:58;120.13;;;113.40;;
16862;SDS011;52193;48.216;-1.698;2023-03-23T03:20:32;113.93;;;107.28;;
16862;SDS011;52193;48.216;-1.698;2023-03-23T03:23:02;110.65;;;103.97;;
16862;SDS011;52193;48.216;-1.698;2023-03-23T03:25:32;106.22;;;99.47;;
16862;SDS011;52193;48.216;-1.698;2023-03-23T03:28:00;105.38;;;98.95;;
16862;SDS011;52193;48.216;-1.698;2023-03-23T03:30:30;99.40;;;93.20;;
16862;SDS011;52193;48.216;-1.698;2023-03-23T03:32:58;98.15;;;91.90;;
16862;SDS011;52193;48.216;-1.698;2023-03-23T03:35:28;92.07;;;86.50;;
16862;SDS011;52193;48.216;-1.698;2023-03-23T03:37:56;91.05;;;85.30;;
16862;SDS011;52193;48.216;-1.698;2023-03-23T03:40:31;83.50;;;78.00;;
16862;SDS011;52193;48.216;-1.698;2023-03-23T03:42:58;78.80;;;73.38;;
16862;SDS011;52193;48.216;-1.698;2023-03-23T03:45:25;76.75;;;71.57;;
16862;SDS011;52193;48.216;-1.698;2023-03-23T03:47:52;74.97;;;70.07;;
16862;SDS011;52193;48.216;-1.698;2023-03-23T03:50:19;103.80;;;96.85;;
16862;SDS011;52193;48.216;-1.698;2023-03-23T03:52:46;120.40;;;113.18;;
16862;SDS011;52193;48.216;-1.698;2023-03-23T03:55:14;113.97;;;107.10;;
16862;SDS011;52193;48.216;-1.698;2023-03-23T03:57:43;98.68;;;92.95;;
16862;SDS011;52193;48.216;-1.698;2023-03-23T04:00:10;92.72;;;87.03;;
16862;SDS011;52193;48.216;-1.698;2023-03-23T04:02:41;83.47;;;78.17;;
16862;SDS011;52193;48.216;-1.698;2023-03-23T04:05:08;81.72;;;76.72;;
16862;SDS011;52193;48.216;-1.698;2023-03-23T04:07:36;73.97;;;69.47;;
16862;SDS011;52193;48.216;-1.698;2023-03-23T04:10:04;77.18;;;72.45;;
16862;SDS011;52193;48.216;-1.698;2023-03-23T04:12:33;75.88;;;71.43;;
16862;SDS011;52193;48.216;-1.698;2023-03-23T04:15:02;72.35;;;68.13;;
16862;SDS011;52193;48.216;-1.698;2023-03-23T04:17:30;69.72;;;65.30;;
16862;SDS011;52193;48.216;-1.698;2023-03-23T04:19:57;65.80;;;61.70;;
16862;SDS011;52193;48.216;-1.698;2023-03-23T04:22:25;63.22;;;58.92;;
16862;SDS011;52193;48.216;-1.698;2023-03-23T04:24:55;60.90;;;56.70;;
16862;SDS011;52193;48.216;-1.698;2023-03-23T04:27:25;55.30;;;51.13;;
16862;SDS011;52193;48.216;-1.698;2023-03-23T04:29:53;54.75;;;50.70;;
16862;SDS011;52193;48.216;-1.698;2023-03-23T04:32:22;54.30;;;50.00;;
16862;SDS011;52193;48.216;-1.698;2023-03-23T04:34:50;54.33;;;50.08;;
16862;SDS011;52193;48.216;-1.698;2023-03-23T04:37:17;54.47;;;50.42;;
16862;SDS011;52193;48.216;-1.698;2023-03-23T04:39:44;52.33;;;48.60;;
16862;SDS011;52193;48.216;-1.698;2023-03-23T04:42:11;49.92;;;46.05;;
16862;SDS011;52193;48.216;-1.698;2023-03-23T04:44:39;48.08;;;44.25;;
16862;SDS011;52193;48.216;-1.698;2023-03-23T04:47:08;49.35;;;45.63;;
16862;SDS011;52193;48.216;-1.698;2023-03-23T04:49:36;47.28;;;43.85;;
16862;SDS011;52193;48.216;-1.698;2023-03-23T04:52:03;43.90;;;40.35;;
16862;SDS011;52193;48.216;-1.698;2023-03-23T04:54:30;43.20;;;39.40;;
16862;SDS011;52193;48.216;-1.698;2023-03-23T04:56:58;42.25;;;38.85;;
16862;SDS011;52193;48.216;-1.698;2023-03-23T04:59:25;40.95;;;37.40;;
16862;SDS011;52193;48.216;-1.698;2023-03-23T05:01:53;38.08;;;34.83;;
16862;SDS011;52193;48.216;-1.698;2023-03-23T05:04:21;36.65;;;33.35;;
16862;SDS011;52193;48.216;-1.698;2023-03-23T05:06:51;35.40;;;32.38;;
16862;SDS011;52193;48.216;-1.698;2023-03-23T05:09:18;34.67;;;31.58;;
16862;SDS011;52193;48.216;-1.698;2023-03-23T05:11:46;34.42;;;31.83;;
16862;SDS011;52193;48.216;-1.698;2023-03-23T05:14:12;33.78;;;30.88;;
16862;SDS011;52193;48.216;-1.698;2023-03-23T05:16:40;32.55;;;29.67;;
16862;SDS011;52193;48.216;-1.698;2023-03-23T05:19:06;31.55;;;28.65;;
16862;SDS011;52193;48.216;-1.698;2023-03-23T05:21:33;30.17;;;27.73;;
16862;SDS011;52193;48.216;-1.698;2023-03-23T05:24:03;30.50;;;27.75;;
16862;SDS011;52193;48.216;-1.698;2023-03-23T05:26:31;30.30;;;27.67;;
16862;SDS011;52193;48.216;-1.698;2023-03-23T05:28:58;29.33;;;26.98;;
16862;SDS011;52193;48.216;-1.698;2023-03-23T05:31:25;29.20;;;26.88;;
16862;SDS011;52193;48.216;-1.698;2023-03-23T05:33:52;27.42;;;24.95;;
16862;SDS011;52193;48.216;-1.698;2023-03-23T05:36:19;26.90;;;24.67;;
16862;SDS011;52193;48.216;-1.698;2023-03-23T05:38:47;25.92;;;23.55;;
16862;SDS011;52193;48.216;-1.698;2023-03-23T05:41:18;25.42;;;23.23;;
16862;SDS011;52193;48.216;-1.698;2023-03-23T05:43:46;25.60;;;23.25;;
16862;SDS011;52193;48.216;-1.698;2023-03-23T05:46:13;23.77;;;21.48;;
16862;SDS011;52193;48.216;-1.698;2023-03-23T05:48:39;23.48;;;21.38;;
16862;SDS011;52193;48.216;-1.698;2023-03-23T05:51:06;23.40;;;21.38;;
16862;SDS011;52193;48.216;-1.698;2023-03-23T05:53:34;23.50;;;21.00;;
16862;SDS011;52193;48.216;-1.698;2023-03-23T05:56:02;23.10;;;20.77;;
16862;SDS011;52193;48.216;-1.698;2023-03-23T05:58:33;22.20;;;20.25;;
16862;SDS011;52193;48.216;-1.698;2023-03-23T06:01:00;23.15;;;20.75;;
16862;SDS011;52193;48.216;-1.698;2023-03-23T06:03:27;22.67;;;20.40;;
16862;SDS011;52193;48.216;-1.698;2023-03-23T06:05:53;23.52;;;21.05;;
16862;SDS011;52193;48.216;-1.698;2023-03-23T06:08:20;21.95;;;19.83;;
16862;SDS011;52193;48.216;-1.698;2023-03-23T06:10:48;22.77;;;20.47;;
16862;SDS011;52193;48.216;-1.698;2023-03-23T06:13:14;22.95;;;20.23;;
16862;SDS011;52193;48.216;-1.698;2023-03-23T06:15:43;22.88;;;19.95;;
16862;SDS011;52193;48.216;-1.698;2023-03-23T06:18:10;21.38;;;19.35;;
16862;SDS011;52193;48.216;-1.698;2023-03-23T06:20:37;23.10;;;20.00;;
16862;SDS011;52193;48.216;-1.698;2023-03-23T06:23:05;21.45;;;19.27;;
16862;SDS011;52193;48.216;-1.698;2023-03-23T06:25:33;24.55;;;19.63;;
16862;SDS011;52193;48.216;-1.698;2023-03-23T06:28:00;28.13;;;20.25;;
16862;SDS011;52193;48.216;-1.698;2023-03-23T06:30:28;25.83;;;21.10;;
16862;SDS011;52193;48.216;-1.698;2023-03-23T06:32:56;27.55;;;20.10;;
16862;SDS011;52193;48.216;-1.698;2023-03-23T06:35:23;21.37;;;19.10;;
16862;SDS011;52193;48.216;-1.698;2023-03-23T06:37:50;23.38;;;19.05;;
16862;SDS011;52193;48.216;-1.698;2023-03-23T06:40:18;26.08;;;20.45;;
16862;SDS011;52193;48.216;-1.698;2023-03-23T06:42:46;21.47;;;19.20;;
16862;SDS011;52193;48.216;-1.698;2023-03-23T06:45:13;22.20;;;19.30;;
16862;SDS011;52193;48.216;-1.698;2023-03-23T06:47:41;26.30;;;19.52;;
16862;SDS011;52193;48.216;-1.698;2023-03-23T06:50:10;25.98;;;19.65;;
16862;SDS011;52193;48.216;-1.698;2023-03-23T06:52:37;26.40;;;18.73;;
16862;SDS011;52193;48.216;-1.698;2023-03-23T06:55:04;25.48;;;19.60;;
16862;SDS011;52193;48.216;-1.698;2023-03-23T06:57:32;27.35;;;20.02;;
16862;SDS011;52193;48.216;-1.698;2023-03-23T06:59:58;24.35;;;19.25;;
16862;SDS011;52193;48.216;-1.698;2023-03-23T07:02:26;23.05;;;19.48;;
16862;SDS011;52193;48.216;-1.698;2023-03-23T07:04:54;23.42;;;18.77;;
16862;SDS011;52193;48.216;-1.698;2023-03-23T07:07:22;25.63;;;19.30;;
16862;SDS011;52193;48.216;-1.698;2023-03-23T07:09:50;21.55;;;18.58;;
16862;SDS011;52193;48.216;-1.698;2023-03-23T07:12:16;27.63;;;19.40;;
16862;SDS011;52193;48.216;-1.698;2023-03-23T07:14:43;29.88;;;19.80;;
16862;SDS011;52193;48.216;-1.698;2023-03-23T07:17:10;29.08;;;19.65;;
16862;SDS011;52193;48.216;-1.698;2023-03-23T07:19:38;27.97;;;19.67;;
16862;SDS011;52193;48.216;-1.698;2023-03-23T07:22:05;28.07;;;19.57;;
16862;SDS011;52193;48.216;-1.698;2023-03-23T07:24:34;32.30;;;20.20;;
16862;SDS011;52193;48.216;-1.698;2023-03-23T07:27:01;30.42;;;20.33;;
16862;SDS011;52193;48.216;-1.698;2023-03-23T07:29:28;31.15;;;20.15;;
16862;SDS011;52193;48.216;-1.698;2023-03-23T07:31:56;28.70;;;20.38;;
16862;SDS011;52193;48.216;-1.698;2023-03-23T07:34:23;30.52;;;19.90;;
16862;SDS011;52193;48.216;-1.698;2023-03-23T07:36:50;26.33;;;19.00;;
16862;SDS011;52193;48.216;-1.698;2023-03-23T07:39:17;30.05;;;19.40;;
16862;SDS011;52193;48.216;-1.698;2023-03-23T07:41:45;25.13;;;18.55;;
16862;SDS011;52193;48.216;-1.698;2023-03-23T07:44:12;27.30;;;18.90;;
16862;SDS011;52193;48.216;-1.698;2023-03-23T07:46:39;25.67;;;18.10;;
16862;SDS011;52193;48.216;-1.698;2023-03-23T07:49:07;25.40;;;18.08;;
16862;SDS011;52193;48.216;-1.698;2023-03-23T07:51:34;30.02;;;18.67;;
16862;SDS011;52193;48.216;-1.698;2023-03-23T07:54:03;28.42;;;18.50;;
16862;SDS011;52193;48.216;-1.698;2023-03-23T07:56:32;26.98;;;18.40;;
16862;SDS011;52193;48.216;-1.698;2023-03-23T07:59:00;27.42;;;18.40;;
16862;SDS011;52193;48.216;-1.698;2023-03-23T08:01:27;29.05;;;18.13;;
16862;SDS011;52193;48.216;-1.698;2023-03-23T08:03:54;27.25;;;18.45;;
16862;SDS011;52193;48.216;-1.698;2023-03-23T08:06:22;29.35;;;18.45;;
16862;SDS011;52193;48.216;-1.698;2023-03-23T08:08:49;31.57;;;19.43;;
16862;SDS011;52193;48.216;-1.698;2023-03-23T08:11:16;30.40;;;18.75;;
16862;SDS011;52193;48.216;-1.698;2023-03-23T08:13:44;25.63;;;17.38;;
16862;SDS011;52193;48.216;-1.698;2023-03-23T08:16:12;25.45;;;17.23;;
16862;SDS011;52193;48.216;-1.698;2023-03-23T08:18:39;25.40;;;16.95;;
16862;SDS011;52193;48.216;-1.698;2023-03-23T08:21:06;30.07;;;17.83;;
16862;SDS011;52193;48.216;-1.698;2023-03-23T08:23:34;23.13;;;17.33;;
16862;SDS011;52193;48.216;-1.698;2023-03-23T08:26:02;30.65;;;18.20;;
16862;SDS011;52193;48.216;-1.698;2023-03-23T08:28:31;30.70;;;18.43;;
16862;SDS011;52193;48.216;-1.698;2023-03-23T08:30:58;29.58;;;18.30;;
16862;SDS011;52193;48.216;-1.698;2023-03-23T08:33:26;27.77;;;18.27;;
16862;SDS011;52193;48.216;-1.698;2023-03-23T08:35:54;27.95;;;18.40;;
16862;SDS011;52193;48.216;-1.698;2023-03-23T08:38:22;32.55;;;19.15;;
16862;SDS011;52193;48.216;-1.698;2023-03-23T08:40:49;26.42;;;18.60;;
16862;SDS011;52193;48.216;-1.698;2023-03-23T08:43:16;29.83;;;18.13;;
16862;SDS011;52193;48.216;-1.698;2023-03-23T08:45:43;26.07;;;17.13;;
16862;SDS011;52193;48.216;-1.698;2023-03-23T08:48:10;24.13;;;17.15;;
16862;SDS011;52193;48.216;-1.698;2023-03-23T08:50:38;32.67;;;18.17;;
16862;SDS011;52193;48.216;-1.698;2023-03-23T08:53:06;29.20;;;17.80;;
16862;SDS011;52193;48.216;-1.698;2023-03-23T08:55:33;24.33;;;17.05;;
16862;SDS011;52193;48.216;-1.698;2023-03-23T08:58:00;23.35;;;16.92;;
16862;SDS011;52193;48.216;-1.698;2023-03-23T09:00:28;25.73;;;16.83;;
16862;SDS011;52193;48.216;-1.698;2023-03-23T09:02:55;28.55;;;18.40;;
16862;SDS011;52193;48.216;-1.698;2023-03-23T09:05:23;28.67;;;18.85;;
16862;SDS011;52193;48.216;-1.698;2023-03-23T09:07:53;28.70;;;18.10;;
16862;SDS011;52193;48.216;-1.698;2023-03-23T09:10:24;22.80;;;16.88;;
16862;SDS011;52193;48.216;-1.698;2023-03-23T09:12:52;27.13;;;16.65;;
16862;SDS011;52193;48.216;-1.698;2023-03-23T09:15:21;31.13;;;16.40;;
16862;SDS011;52193;48.216;-1.698;2023-03-23T09:17:49;24.75;;;15.50;;
16862;SDS011;52193;48.216;-1.698;2023-03-23T09:20:17;22.80;;;15.45;;
16862;SDS011;52193;48.216;-1.698;2023-03-23T09:22:47;24.55;;;15.20;;
16862;SDS011;52193;48.216;-1.698;2023-03-23T09:25:18;22.05;;;14.10;;
16862;SDS011;52193;48.216;-1.698;2023-03-23T09:27:48;17.73;;;13.10;;
16862;SDS011;52193;48.216;-1.698;2023-03-23T09:30:18;18.90;;;13.70;;
16862;SDS011;52193;48.216;-1.698;2023-03-23T09:32:46;17.13;;;13.50;;
16862;SDS011;52193;48.216;-1.698;2023-03-23T09:35:14;18.35;;;13.45;;
16862;SDS011;52193;48.216;-1.698;2023-03-23T09:37:42;19.17;;;13.15;;
16862;SDS011;52193;48.216;-1.698;2023-03-23T09:40:11;18.03;;;13.23;;
16862;SDS011;52193;48.216;-1.698;2023-03-23T09:42:46;18.70;;;12.47;;
16862;SDS011;52193;48.216;-1.698;2023-03-23T09:45:24;18.48;;;12.60;;
16862;SDS011;52193;48.216;-1.698;2023-03-23T09:48:03;18.37;;;12.27;;
16862;SDS011;52193;48.216;-1.698;2023-03-23T09:50:41;14.65;;;10.90;;
16862;SDS011;52193;48.216;-1.698;2023-03-23T09:53:13;14.60;;;10.87;;
16862;SDS011;52193;48.216;-1.698;2023-03-23T09:55:44;12.48;;;10.75;;
16862;SDS011;52193;48.216;-1.698;2023-03-23T09:58:16;15.60;;;11.32;;
16862;SDS011;52193;48.216;-1.698;2023-03-23T10:00:50;15.18;;;10.73;;
16862;SDS011;52193;48.216;-1.698;2023-03-23T10:03:21;16.25;;;10.88;;
16862;SDS011;52193;48.216;-1.698;2023-03-23T10:05:53;15.60;;;10.68;;
16862;SDS011;52193;48.216;-1.698;2023-03-23T10:08:21;18.63;;;10.85;;
16862;SDS011;52193;48.216;-1.698;2023-03-23T10:10:56;17.63;;;10.57;;
16862;SDS011;52193;48.216;-1.698;2023-03-23T10:13:31;18.02;;;11.00;;
16862;SDS011;52193;48.216;-1.698;2023-03-23T10:16:12;16.95;;;10.23;;
16862;SDS011;52193;48.216;-1.698;2023-03-23T10:18:45;14.93;;;9.95;;
16862;SDS011;52193;48.216;-1.698;2023-03-23T10:21:20;16.02;;;9.77;;
16862;SDS011;52193;48.216;-1.698;2023-03-23T10:23:51;14.38;;;9.40;;
16862;SDS011;52193;48.216;-1.698;2023-03-23T10:26:27;14.47;;;9.63;;
16862;SDS011;52193;48.216;-1.698;2023-03-23T10:29:01;13.57;;;9.73;;
16862;SDS011;52193;48.216;-1.698;2023-03-23T10:31:37;14.57;;;9.90;;
16862;SDS011;52193;48.216;-1.698;2023-03-23T10:34:08;15.32;;;10.70;;
16862;SDS011;52193;48.216;-1.698;2023-03-23T10:36:51;14.55;;;11.30;;
16862;SDS011;52193;48.216;-1.698;2023-03-23T10:39:26;12.75;;;9.75;;
16862;SDS011;52193;48.216;-1.698;2023-03-23T10:41:59;15.53;;;9.83;;
16862;SDS011;52193;48.216;-1.698;2023-03-23T10:44:33;19.13;;;10.63;;
16862;SDS011;52193;48.216;-1.698;2023-03-23T10:47:01;13.85;;;9.32;;
16862;SDS011;52193;48.216;-1.698;2023-03-23T10:49:30;14.20;;;9.60;;
16862;SDS011;52193;48.216;-1.698;2023-03-23T10:52:04;16.63;;;9.98;;
16862;SDS011;52193;48.216;-1.698;2023-03-23T10:54:38;13.60;;;9.88;;
16862;SDS011;52193;48.216;-1.698;2023-03-23T10:57:17;13.20;;;9.43;;
16862;SDS011;52193;48.216;-1.698;2023-03-23T10:59:49;12.52;;;9.07;;
16862;SDS011;52193;48.216;-1.698;2023-03-23T11:02:17;12.80;;;8.95;;
16862;SDS011;52193;48.216;-1.698;2023-03-23T11:04:46;14.73;;;9.38;;
16862;SDS011;52193;48.216;-1.698;2023-03-23T11:07:25;13.07;;;9.45;;
16862;SDS011;52193;48.216;-1.698;2023-03-23T11:09:55;17.98;;;11.80;;
16862;SDS011;52193;48.216;-1.698;2023-03-23T11:12:24;16.00;;;11.93;;
16862;SDS011;52193;48.216;-1.698;2023-03-23T11:15:02;15.70;;;10.93;;
16862;SDS011;52193;48.216;-1.698;2023-03-23T11:17:35;12.10;;;10.00;;
16862;SDS011;52193;48.216;-1.698;2023-03-23T11:20:09;11.85;;;10.07;;
16862;SDS011;52193;48.216;-1.698;2023-03-23T11:22:37;15.20;;;9.80;;
16862;SDS011;52193;48.216;-1.698;2023-03-23T11:25:05;14.93;;;11.27;;
16862;SDS011;52193;48.216;-1.698;2023-03-23T11:27:37;21.08;;;13.27;;
16862;SDS011;52193;48.216;-1.698;2023-03-23T11:30:09;19.13;;;14.25;;
16862;SDS011;52193;48.216;-1.698;2023-03-23T11:32:44;19.63;;;13.35;;
16862;SDS011;52193;48.216;-1.698;2023-03-23T11:35:15;21.05;;;14.57;;
16862;SDS011;52193;48.216;-1.698;2023-03-23T11:37:44;17.80;;;14.37;;
16862;SDS011;52193;48.216;-1.698;2023-03-23T11:40:15;21.65;;;13.65;;
16862;SDS011;52193;48.216;-1.698;2023-03-23T11:42:45;21.17;;;12.70;;
16862;SDS011;52193;48.216;-1.698;2023-03-23T11:45:17;18.73;;;13.67;;
16862;SDS011;52193;48.216;-1.698;2023-03-23T11:47:50;20.13;;;13.80;;
16862;SDS011;52193;48.216;-1.698;2023-03-23T11:50:24;22.35;;;14.90;;
16862;SDS011;52193;48.216;-1.698;2023-03-23T11:52:55;18.83;;;13.48;;
16862;SDS011;52193;48.216;-1.698;2023-03-23T11:55:30;22.33;;;14.35;;
16862;SDS011;52193;48.216;-1.698;2023-03-23T11:58:04;19.92;;;12.93;;
16862;SDS011;52193;48.216;-1.698;2023-03-23T12:00:38;26.52;;;13.93;;
16862;SDS011;52193;48.216;-1.698;2023-03-23T12:03:30;20.80;;;12.60;;
16862;SDS011;52193;48.216;-1.698;2023-03-23T12:06:06;19.00;;;12.57;;
16862;SDS011;52193;48.216;-1.698;2023-03-23T12:08:45;21.07;;;12.10;;
16862;SDS011;52193;48.216;-1.698;2023-03-23T12:11:26;23.52;;;12.30;;
16862;SDS011;52193;48.216;-1.698;2023-03-23T12:14:03;18.15;;;11.07;;
16862;SDS011;52193;48.216;-1.698;2023-03-23T12:16:44;22.55;;;11.18;;
16862;SDS011;52193;48.216;-1.698;2023-03-23T12:19:23;19.50;;;10.13;;
16862;SDS011;52193;48.216;-1.698;2023-03-23T12:21:58;14.13;;;9.40;;
16862;SDS011;52193;48.216;-1.698;2023-03-23T12:24:34;24.45;;;11.35;;
16862;SDS011;52193;48.216;-1.698;2023-03-23T12:27:12;21.10;;;10.87;;
16862;SDS011;52193;48.216;-1.698;2023-03-23T12:29:52;20.77;;;10.48;;
16862;SDS011;52193;48.216;-1.698;2023-03-23T12:32:35;21.98;;;10.60;;
16862;SDS011;52193;48.216;-1.698;2023-03-23T12:35:13;18.20;;;9.57;;
16862;SDS011;52193;48.216;-1.698;2023-03-23T12:37:55;20.08;;;9.25;;
16862;SDS011;52193;48.216;-1.698;2023-03-23T12:40:36;19.85;;;9.43;;
16862;SDS011;52193;48.216;-1.698;2023-03-23T12:43:15;19.70;;;9.40;;
16862;SDS011;52193;48.216;-1.698;2023-03-23T12:45:54;17.70;;;9.03;;
16862;SDS011;52193;48.216;-1.698;2023-03-23T12:48:31;17.52;;;8.52;;
16862;SDS011;52193;48.216;-1.698;2023-03-23T12:51:11;18.65;;;9.77;;
16862;SDS011;52193;48.216;-1.698;2023-03-23T12:53:44;19.45;;;9.73;;
16862;SDS011;52193;48.216;-1.698;2023-03-23T12:56:19;18.35;;;10.20;;
16862;SDS011;52193;48.216;-1.698;2023-03-23T12:58:50;19.17;;;9.55;;
16862;SDS011;52193;48.216;-1.698;2023-03-23T13:01:24;22.37;;;10.97;;
16862;SDS011;52193;48.216;-1.698;2023-03-23T13:03:56;18.70;;;9.80;;
16862;SDS011;52193;48.216;-1.698;2023-03-23T13:06:26;21.48;;;10.10;;
16862;SDS011;52193;48.216;-1.698;2023-03-23T13:08:59;19.90;;;8.97;;
16862;SDS011;52193;48.216;-1.698;2023-03-23T13:11:32;21.48;;;9.48;;
16862;SDS011;52193;48.216;-1.698;2023-03-23T13:14:03;21.02;;;10.18;;
16862;SDS011;52193;48.216;-1.698;2023-03-23T13:16:41;20.45;;;10.18;;
16862;SDS011;52193;48.216;-1.698;2023-03-23T13:19:17;18.25;;;9.68;;
16862;SDS011;52193;48.216;-1.698;2023-03-23T13:21:52;20.92;;;9.73;;
16862;SDS011;52193;48.216;-1.698;2023-03-23T13:24:24;16.93;;;8.93;;
16862;SDS011;52193;48.216;-1.698;2023-03-23T13:26:55;22.67;;;9.57;;
16862;SDS011;52193;48.216;-1.698;2023-03-23T13:29:23;20.48;;;10.13;;
16862;SDS011;52193;48.216;-1.698;2023-03-23T13:31:52;18.52;;;9.00;;
16862;SDS011;52193;48.216;-1.698;2023-03-23T13:34:34;16.65;;;9.48;;
16862;SDS011;52193;48.216;-1.698;2023-03-23T13:37:03;18.17;;;8.55;;
16862;SDS011;52193;48.216;-1.698;2023-03-23T13:39:32;19.70;;;8.25;;
16862;SDS011;52193;48.216;-1.698;2023-03-23T13:42:04;19.85;;;8.68;;
16862;SDS011;52193;48.216;-1.698;2023-03-23T13:44:53;18.23;;;8.88;;
16862;SDS011;52193;48.216;-1.698;2023-03-23T13:47:25;18.75;;;8.32;;
16862;SDS011;52193;48.216;-1.698;2023-03-23T13:49:57;15.00;;;7.17;;
16862;SDS011;52193;48.216;-1.698;2023-03-23T13:52:36;15.07;;;6.22;;
16862;SDS011;52193;48.216;-1.698;2023-03-23T13:55:21;14.05;;;5.60;;
16862;SDS011;52193;48.216;-1.698;2023-03-23T13:57:57;13.82;;;5.80;;
16862;SDS011;52193;48.216;-1.698;2023-03-23T14:00:45;11.73;;;5.30;;
16862;SDS011;52193;48.216;-1.698;2023-03-23T14:03:14;14.95;;;5.50;;
16862;SDS011;52193;48.216;-1.698;2023-03-23T14:06:00;12.87;;;5.33;;
16862;SDS011;52193;48.216;-1.698;2023-03-23T14:08:36;12.38;;;5.03;;
16862;SDS011;52193;48.216;-1.698;2023-03-23T14:11:16;16.13;;;5.68;;
16862;SDS011;52193;48.216;-1.698;2023-03-23T14:13:51;11.60;;;4.97;;
16862;SDS011;52193;48.216;-1.698;2023-03-23T14:16:28;13.88;;;5.50;;
16862;SDS011;52193;48.216;-1.698;2023-03-23T14:19:02;13.00;;;4.95;;
16862;SDS011;52193;48.216;-1.698;2023-03-23T14:21:34;10.93;;;4.80;;
16862;SDS011;52193;48.216;-1.698;2023-03-23T14:24:03;11.35;;;4.65;;
16862;SDS011;52193;48.216;-1.698;2023-03-23T14:26:35;10.45;;;4.80;;
16862;SDS011;52193;48.216;-1.698;2023-03-23T14:29:03;11.15;;;5.07;;
16862;SDS011;52193;48.216;-1.698;2023-03-23T14:31:31;15.80;;;5.40;;